createdAt,value
2023-03-17T00:01:21.949Z,5.85
2023-03-17T00:03:49.874Z,5.75
2023-03-17T00:06:27.775Z,5.73
2023-03-17T00:08:54.304Z,5.89
2023-03-17T00:11:21.217Z,5.72
2023-03-17T00:13:48.814Z,5.71
2023-03-17T00:16:28.746Z,5.56
2023-03-17T00:18:57.572Z,5.43
2023-03-17T00:21:32.285Z,5.48
2023-03-17T00:23:59.582Z,5.56
2023-03-17T00:26:26.731Z,5.52
2023-03-17T00:28:54.407Z,5.56
2023-03-17T00:31:24.323Z,5.66
2023-03-17T00:33:53.913Z,5.61
2023-03-17T00:36:23.920Z,5.45
2023-03-17T00:38:52.619Z,5.74
2023-03-17T00:41:19.261Z,5.86
2023-03-17T00:43:46.172Z,5.60
2023-03-17T00:46:38.022Z,5.43
2023-03-17T00:51:43.775Z,5.38
2023-03-17T00:54:11.399Z,5.45
2023-03-17T00:56:39.588Z,5.66
2023-03-17T00:59:19.472Z,5.58
2023-03-17T01:01:46.447Z,5.56
2023-03-17T01:04:13.472Z,5.44
2023-03-17T01:06:40.142Z,5.61
2023-03-17T01:09:08.163Z,5.37
2023-03-17T01:11:34.991Z,5.51
2023-03-17T01:14:01.504Z,5.35
2023-03-17T01:16:29.025Z,5.23
2023-03-17T01:18:55.627Z,5.43
2023-03-17T01:21:22.411Z,5.30
2023-03-17T01:23:49.176Z,5.16
2023-03-17T01:26:15.721Z,5.20
2023-03-17T01:28:42.562Z,5.35
2023-03-17T01:31:09.522Z,5.29
2023-03-17T01:33:36.438Z,5.09
2023-03-17T01:36:03.070Z,5.20
2023-03-17T01:38:29.649Z,5.19
2023-03-17T01:41:02.320Z,5.22
2023-03-17T01:43:30.746Z,5.06
2023-03-17T01:46:18.057Z,5.27
2023-03-17T01:49:22.977Z,5.33
2023-03-17T01:51:52.611Z,5.32
2023-03-17T01:54:37.266Z,5.41
2023-03-17T01:57:23.356Z,5.39
2023-03-17T01:59:57.533Z,5.40
2023-03-17T02:02:30.919Z,5.48
2023-03-17T02:04:58.388Z,5.32
2023-03-17T02:07:27.991Z,5.25
2023-03-17T02:09:56.966Z,5.24
2023-03-17T02:12:24.850Z,5.23
2023-03-17T02:14:52.302Z,5.09
2023-03-17T02:17:21.092Z,4.94
2023-03-17T02:19:48.323Z,4.83
2023-03-17T02:22:16.638Z,4.83
2023-03-17T02:24:55.704Z,4.75
2023-03-17T02:27:35.944Z,4.70
2023-03-17T02:30:04.564Z,4.71
2023-03-17T02:32:35.312Z,4.64
2023-03-17T02:35:02.369Z,4.55
2023-03-17T02:37:28.810Z,4.47
2023-03-17T02:39:55.694Z,4.68
2023-03-17T02:42:22.173Z,4.59
2023-03-17T02:44:48.612Z,4.68
2023-03-17T02:47:15.603Z,4.62
2023-03-17T02:49:43.396Z,4.80
2023-03-17T02:52:09.885Z,4.34
2023-03-17T02:54:39.119Z,4.37
2023-03-17T02:57:07.572Z,4.26
2023-03-17T02:59:34.504Z,4.37
2023-03-17T03:02:01.140Z,4.09
2023-03-17T03:04:27.743Z,4.02
2023-03-17T03:06:54.839Z,3.94
2023-03-17T03:09:21.393Z,4.00
2023-03-17T03:11:47.816Z,4.04
2023-03-17T03:14:14.421Z,4.03
2023-03-17T03:16:40.919Z,3.98
2023-03-17T03:19:07.963Z,3.88
2023-03-17T03:21:35.171Z,3.83
2023-03-17T03:24:01.639Z,3.71
2023-03-17T03:26:28.353Z,3.52
2023-03-17T03:28:57.233Z,3.39
2023-03-17T03:31:24.273Z,3.37
2023-03-17T03:33:50.796Z,3.25
2023-03-17T03:36:17.195Z,3.33
2023-03-17T03:38:43.689Z,3.40
2023-03-17T03:41:11.150Z,3.07
2023-03-17T03:43:37.579Z,2.91
2023-03-17T03:46:04.768Z,2.67
2023-03-17T03:48:31.308Z,2.77
2023-03-17T03:50:59.479Z,2.76
2023-03-17T03:53:26.578Z,2.83
2023-03-17T03:55:53.919Z,2.65
2023-03-17T03:58:21.240Z,2.31
2023-03-17T04:00:48.071Z,2.45
2023-03-17T04:03:14.965Z,2.49
2023-03-17T04:05:41.884Z,2.44
2023-03-17T04:08:09.021Z,2.49
2023-03-17T04:10:35.453Z,2.62
2023-03-17T04:13:01.933Z,2.72
2023-03-17T04:15:28.631Z,2.72
2023-03-17T04:17:55.335Z,2.82
2023-03-17T04:20:22.211Z,2.44
2023-03-17T04:22:48.756Z,2.53
2023-03-17T04:25:15.826Z,2.39
2023-03-17T04:27:42.941Z,2.40
2023-03-17T04:30:13.795Z,2.27
2023-03-17T04:32:41.672Z,2.23
2023-03-17T04:35:12.208Z,1.78
2023-03-17T04:37:38.888Z,1.71
2023-03-17T04:40:09.868Z,1.46
2023-03-17T04:42:39.304Z,1.40
2023-03-17T04:45:07.198Z,1.44
2023-03-17T04:47:33.672Z,1.44
2023-03-17T04:50:00.206Z,1.31
2023-03-17T04:52:26.736Z,1.49
2023-03-17T04:54:53.400Z,1.55
2023-03-17T04:57:20.584Z,1.52
2023-03-17T04:59:47.068Z,1.40
2023-03-17T05:02:16.343Z,1.32
2023-03-17T05:04:45.057Z,1.26
2023-03-17T05:07:12.634Z,1.16
2023-03-17T05:09:39.627Z,1.11
2023-03-17T05:12:07.366Z,1.38
2023-03-17T05:14:33.857Z,1.23
2023-03-17T05:17:00.390Z,1.32
2023-03-17T05:19:26.887Z,1.30
2023-03-17T05:21:53.331Z,1.47
2023-03-17T05:24:19.801Z,1.34
2023-03-17T05:26:46.409Z,1.36
2023-03-17T05:29:12.842Z,0.99
2023-03-17T05:31:39.276Z,0.86
2023-03-17T05:34:05.925Z,0.89
2023-03-17T05:36:33.525Z,0.96
2023-03-17T05:39:00.338Z,1.05
2023-03-17T05:41:26.853Z,0.79
2023-03-17T05:43:53.360Z,1.02
2023-03-17T05:46:20.780Z,1.08
2023-03-17T05:48:47.281Z,0.98
2023-03-17T05:51:13.876Z,1.00
2023-03-17T05:53:40.957Z,0.96
2023-03-17T05:56:07.910Z,1.07
2023-03-17T05:58:34.676Z,1.30
2023-03-17T06:01:01.099Z,1.23
2023-03-17T06:03:27.831Z,1.13
2023-03-17T06:05:54.435Z,1.18
2023-03-17T06:08:21.307Z,1.31
2023-03-17T06:10:48.021Z,1.24
2023-03-17T06:13:14.799Z,1.44
2023-03-17T06:15:42.480Z,1.49
2023-03-17T06:18:08.991Z,2.29
2023-03-17T06:20:35.433Z,4.15
2023-03-17T06:23:05.341Z,5.58
2023-03-17T06:25:34.416Z,7.58
2023-03-17T06:28:02.478Z,9.36
2023-03-17T06:30:30.501Z,9.11
2023-03-17T06:32:57.001Z,9.27
2023-03-17T06:35:24.661Z,9.23
2023-03-17T06:37:51.562Z,8.84
2023-03-17T06:40:18.212Z,9.69
2023-03-17T06:42:45.638Z,10.72
2023-03-17T06:45:13.123Z,11.94
2023-03-17T06:47:39.980Z,12.84
2023-03-17T06:50:12.280Z,13.37
2023-03-17T06:52:39.909Z,14.46
2023-03-17T06:55:07.207Z,15.63
2023-03-17T06:57:34.230Z,15.02
2023-03-17T07:00:01.034Z,15.56
2023-03-17T07:02:27.979Z,15.85
2023-03-17T07:04:54.547Z,14.64
2023-03-17T07:07:21.203Z,15.30
2023-03-17T07:09:47.919Z,15.22
2023-03-17T07:12:14.689Z,16.03
2023-03-17T07:14:41.698Z,15.04
2023-03-17T07:17:13.312Z,14.06
2023-03-17T07:19:40.603Z,13.09
2023-03-17T07:22:08.157Z,11.62
2023-03-17T07:24:34.684Z,11.43
2023-03-17T07:27:01.255Z,11.32
2023-03-17T07:29:29.246Z,11.22
2023-03-17T07:31:56.000Z,10.94
2023-03-17T07:34:23.125Z,11.74
2023-03-17T07:36:49.597Z,11.03
2023-03-17T07:39:16.566Z,10.64
2023-03-17T07:41:47.172Z,10.10
2023-03-17T07:44:13.805Z,10.04
2023-03-17T07:46:40.289Z,9.84
2023-03-17T07:49:07.581Z,10.26
2023-03-17T07:51:35.128Z,10.46
2023-03-17T07:54:05.708Z,10.12
2023-03-17T07:56:32.727Z,10.13
2023-03-17T07:58:59.830Z,9.59
2023-03-17T08:01:27.808Z,9.87
2023-03-17T08:03:55.567Z,9.80
2023-03-17T08:06:25.192Z,9.88
2023-03-17T08:08:52.922Z,9.89
2023-03-17T08:11:20.130Z,9.84
2023-03-17T08:13:47.867Z,10.51
2023-03-17T08:16:14.675Z,10.15
2023-03-17T08:18:41.541Z,11.41
2023-03-17T08:21:08.233Z,11.27
2023-03-17T08:23:34.974Z,12.26
2023-03-17T08:26:03.128Z,13.47
2023-03-17T08:28:30.415Z,13.39
2023-03-17T08:31:17.258Z,13.82
2023-03-17T08:33:47.683Z,14.50
2023-03-17T08:36:14.904Z,13.59
2023-03-17T08:38:42.440Z,14.64
2023-03-17T08:41:12.284Z,14.35
2023-03-17T08:43:39.723Z,14.39
2023-03-17T08:46:09.706Z,14.60
2023-03-17T08:48:37.242Z,14.65
2023-03-17T08:51:05.354Z,15.61
2023-03-17T08:53:34.847Z,16.69
2023-03-17T08:56:02.317Z,14.94
2023-03-17T08:58:29.320Z,14.60
2023-03-17T09:00:59.616Z,15.66
2023-03-17T09:03:27.261Z,15.48
2023-03-17T09:05:54.658Z,14.35
2023-03-17T09:08:22.629Z,13.29
2023-03-17T09:10:49.817Z,14.06
2023-03-17T09:13:16.307Z,13.97
2023-03-17T09:15:42.989Z,12.01
2023-03-17T09:18:10.399Z,12.60
2023-03-17T09:20:37.251Z,12.27
2023-03-17T09:23:08.195Z,12.83
2023-03-17T09:25:39.366Z,13.12
2023-03-17T09:28:07.242Z,12.36
2023-03-17T09:30:33.824Z,10.77
2023-03-17T09:33:00.729Z,11.75
2023-03-17T09:35:28.591Z,11.88
2023-03-17T09:37:55.636Z,11.13
2023-03-17T09:40:33.080Z,11.24
2023-03-17T09:42:59.661Z,11.09
2023-03-17T09:45:38.916Z,11.06
2023-03-17T09:48:13.352Z,11.59
2023-03-17T09:50:48.683Z,10.70
2023-03-17T09:53:22.630Z,11.48
2023-03-17T09:55:55.439Z,10.25
2023-03-17T09:58:32.097Z,10.75
2023-03-17T10:01:00.608Z,11.21
2023-03-17T10:03:27.432Z,11.56
2023-03-17T10:05:59.557Z,12.15
2023-03-17T10:08:33.802Z,12.32
2023-03-17T10:11:18.765Z,12.80
2023-03-17T10:13:53.118Z,12.25
2023-03-17T10:16:23.209Z,13.30
2023-03-17T10:18:53.023Z,14.05
2023-03-17T10:21:25.336Z,14.22
2023-03-17T10:23:54.397Z,14.90
2023-03-17T10:26:33.581Z,15.05
2023-03-17T10:29:04.174Z,14.86
2023-03-17T10:31:33.679Z,14.38
2023-03-17T10:34:16.354Z,14.10
2023-03-17T10:36:47.262Z,14.67
2023-03-17T10:39:18.811Z,14.42
2023-03-17T10:41:58.986Z,13.88
2023-03-17T10:44:40.701Z,13.22
2023-03-17T10:47:22.741Z,13.96
2023-03-17T10:49:49.416Z,12.82
2023-03-17T10:52:23.002Z,13.39
2023-03-17T10:54:53.117Z,13.92
2023-03-17T10:57:19.740Z,13.84
2023-03-17T10:59:54.394Z,13.27
2023-03-17T11:02:30.502Z,13.75
2023-03-17T11:05:04.319Z,14.22
2023-03-17T11:07:39.974Z,13.33
2023-03-17T11:10:23.803Z,13.65
2023-03-17T11:12:59.082Z,13.82
2023-03-17T11:15:32.475Z,14.39
2023-03-17T11:18:01.984Z,14.74
2023-03-17T11:20:38.456Z,15.31
2023-03-17T11:23:17.790Z,15.61
2023-03-17T11:25:49.549Z,16.17
2023-03-17T11:28:24.920Z,14.33
2023-03-17T11:31:23.246Z,14.66
2023-03-17T11:34:06.963Z,15.30
2023-03-17T11:36:36.302Z,15.59
2023-03-17T11:39:43.087Z,15.02
2023-03-17T11:42:18.797Z,15.33
2023-03-17T11:45:00.472Z,14.67
2023-03-17T11:47:45.254Z,14.09
2023-03-17T11:50:34.227Z,14.41
2023-03-17T11:53:19.431Z,14.67
2023-03-17T11:55:51.529Z,13.65
2023-03-17T11:58:28.581Z,14.43
2023-03-17T12:01:02.961Z,13.90
2023-03-17T12:03:33.929Z,14.04
2023-03-17T12:06:07.441Z,13.71
2023-03-17T12:08:39.922Z,14.10
2023-03-17T12:11:12.323Z,14.06
2023-03-17T12:13:48.204Z,14.12
2023-03-17T12:16:22.655Z,14.23
2023-03-17T12:19:03.440Z,14.50
2023-03-17T12:21:41.977Z,14.56
2023-03-17T12:24:31.371Z,13.92
2023-03-17T12:27:09.171Z,13.75
2023-03-17T12:29:52.489Z,13.59
2023-03-17T12:32:33.650Z,13.84
2023-03-17T12:35:19.081Z,14.01
2023-03-17T12:37:46.567Z,13.99
2023-03-17T12:40:18.726Z,14.04
2023-03-17T12:43:35.220Z,14.55
2023-03-17T12:46:28.807Z,14.30
2023-03-17T12:49:11.040Z,13.80
2023-03-17T12:52:06.664Z,13.83
2023-03-17T12:54:39.435Z,14.23
2023-03-17T12:57:20.609Z,14.75
2023-03-17T12:59:50.985Z,14.43
2023-03-17T13:02:23.081Z,14.41
2023-03-17T13:04:57.813Z,13.29
2023-03-17T13:07:27.055Z,13.31
2023-03-17T13:09:53.461Z,14.21
2023-03-17T13:12:42.065Z,14.39
2023-03-17T13:15:36.199Z,14.18
2023-03-17T13:18:15.418Z,14.62
2023-03-17T13:20:57.814Z,14.48
2023-03-17T13:24:18.786Z,14.38
2023-03-17T13:27:10.747Z,14.45
2023-03-17T13:29:37.133Z,14.48
2023-03-17T13:32:39.837Z,14.54
2023-03-17T13:35:43.572Z,14.48
2023-03-17T13:38:43.432Z,14.29
2023-03-17T13:41:53.172Z,13.79
2023-03-17T13:44:49.465Z,14.16
2023-03-17T13:47:36.154Z,14.70
2023-03-17T13:50:27.704Z,14.62
2023-03-17T13:53:19.088Z,14.16
2023-03-17T13:56:16.587Z,13.96
2023-03-17T13:59:01.688Z,14.41
2023-03-17T14:01:43.061Z,14.81
2023-03-17T14:04:19.220Z,15.07
2023-03-17T14:06:50.139Z,14.98
2023-03-17T14:09:29.647Z,15.07
2023-03-17T14:11:59.985Z,15.08
2023-03-17T14:14:33.581Z,15.30
2023-03-17T14:17:12.141Z,14.83
2023-03-17T14:19:41.688Z,15.73
2023-03-17T14:22:23.638Z,15.85
2023-03-17T14:24:55.447Z,16.16
2023-03-17T14:27:26.412Z,16.71
2023-03-17T14:29:53.054Z,16.82
2023-03-17T14:32:24.850Z,16.41
2023-03-17T14:34:57.567Z,16.51
2023-03-17T14:37:24.341Z,17.21
2023-03-17T14:39:53.974Z,17.32
2023-03-17T14:42:26.351Z,16.65
2023-03-17T14:45:01.802Z,16.53
2023-03-17T14:47:32.289Z,16.15
2023-03-17T14:50:02.709Z,15.77
2023-03-17T14:52:33.451Z,15.75
2023-03-17T14:55:00.934Z,16.06
2023-03-17T14:57:31.306Z,16.02
2023-03-17T15:00:15.304Z,15.99
2023-03-17T15:02:44.332Z,15.56
2023-03-17T15:05:39.720Z,15.35
2023-03-17T15:08:46.321Z,15.23
2023-03-17T15:11:21.788Z,15.27
2023-03-17T15:13:51.204Z,15.50
2023-03-17T15:16:25.597Z,15.57
2023-03-17T15:19:06.824Z,15.48
2023-03-17T15:21:42.937Z,15.48
2023-03-17T15:24:25.479Z,15.12
2023-03-17T15:27:00.795Z,15.21
2023-03-17T15:29:28.574Z,15.30
2023-03-17T15:32:02.937Z,15.35
2023-03-17T15:34:29.490Z,15.57
2023-03-17T15:36:57.072Z,15.75
2023-03-17T15:39:24.488Z,15.89
2023-03-17T15:41:52.072Z,15.92
2023-03-17T15:44:18.521Z,15.99
2023-03-17T15:46:45.259Z,16.02
2023-03-17T15:49:12.460Z,16.04
2023-03-17T15:51:38.997Z,16.02
2023-03-17T15:54:05.649Z,15.89
2023-03-17T15:56:32.090Z,15.88
2023-03-17T15:58:58.574Z,15.61
2023-03-17T16:01:27.879Z,15.67
2023-03-17T16:03:54.676Z,15.38
2023-03-17T16:06:22.493Z,15.08
2023-03-17T16:08:49.740Z,14.96
2023-03-17T16:11:28.037Z,14.91
2023-03-17T16:13:56.001Z,14.76
2023-03-17T16:16:43.611Z,14.43
2023-03-17T16:19:22.898Z,14.37
2023-03-17T16:21:49.439Z,14.01
2023-03-17T16:24:27.041Z,14.32
2023-03-17T16:26:53.880Z,14.37
2023-03-17T16:29:21.608Z,14.37
2023-03-17T16:31:50.482Z,14.22
2023-03-17T16:34:26.939Z,14.35
2023-03-17T16:36:54.555Z,14.25
2023-03-17T16:39:23.291Z,13.94
2023-03-17T16:41:50.592Z,13.88
2023-03-17T16:44:19.499Z,13.67
2023-03-17T16:46:46.116Z,13.73
2023-03-17T16:49:15.468Z,13.46
2023-03-17T16:51:42.820Z,13.76
2023-03-17T16:54:10.605Z,13.67
2023-03-17T16:56:39.833Z,13.68
2023-03-17T16:59:13.122Z,13.53
2023-03-17T17:01:39.661Z,13.40
2023-03-17T17:04:09.711Z,13.42
2023-03-17T17:06:36.137Z,13.48
2023-03-17T17:09:02.920Z,13.51
2023-03-17T17:11:29.434Z,13.35
2023-03-17T17:13:55.913Z,13.28
2023-03-17T17:16:27.467Z,13.08
2023-03-17T17:18:54.422Z,13.22
2023-03-17T17:21:21.332Z,13.18
2023-03-17T17:23:48.497Z,12.97
2023-03-17T17:26:14.902Z,12.97
2023-03-17T17:28:41.374Z,13.03
2023-03-17T17:31:08.903Z,13.08
2023-03-17T17:33:36.664Z,13.15
2023-03-17T17:36:12.444Z,12.97
2023-03-17T17:38:38.927Z,13.01
2023-03-17T17:41:08.932Z,12.87
2023-03-17T17:43:35.756Z,12.79
2023-03-17T17:46:02.481Z,12.78
2023-03-17T17:48:29.189Z,12.75
2023-03-17T17:50:56.587Z,12.62
2023-03-17T17:53:23.195Z,12.74
2023-03-17T17:55:50.419Z,12.73
2023-03-17T17:58:20.587Z,12.22
2023-03-17T18:00:47.181Z,11.75
2023-03-17T18:03:13.695Z,11.66
2023-03-17T18:05:40.203Z,11.69
2023-03-17T18:08:06.609Z,11.91
2023-03-17T18:10:33.963Z,11.99
2023-03-17T18:13:01.953Z,11.99
2023-03-17T18:15:28.546Z,11.98
2023-03-17T18:17:56.008Z,11.98
2023-03-17T18:20:23.725Z,11.97
2023-03-17T18:22:51.017Z,11.96
2023-03-17T18:25:18.006Z,11.94
2023-03-17T18:27:44.913Z,11.92
2023-03-17T18:30:14.433Z,11.94
2023-03-17T18:32:43.017Z,11.98
2023-03-17T18:35:15.069Z,11.90
2023-03-17T18:37:41.931Z,11.78
2023-03-17T18:40:15.191Z,11.80
2023-03-17T18:42:43.796Z,11.61
2023-03-17T18:45:11.589Z,11.51
2023-03-17T18:47:38.971Z,11.31
2023-03-17T18:50:08.067Z,11.27
2023-03-17T18:52:37.027Z,11.12
2023-03-17T18:55:04.357Z,11.09
2023-03-17T18:57:31.212Z,10.99
2023-03-17T18:59:57.845Z,11.05
2023-03-17T19:02:24.465Z,11.02
2023-03-17T19:04:51.406Z,10.98
2023-03-17T19:07:18.314Z,11.01
2023-03-17T19:09:46.122Z,10.86
2023-03-17T19:12:13.820Z,10.73
2023-03-17T19:14:40.961Z,10.67
2023-03-17T19:17:08.756Z,10.69
2023-03-17T19:19:35.787Z,10.43
2023-03-17T19:22:03.965Z,10.36
2023-03-17T19:24:32.010Z,10.47
2023-03-17T19:27:01.541Z,10.38
2023-03-17T19:29:30.664Z,10.35
2023-03-17T19:32:00.490Z,10.34
2023-03-17T19:34:30.181Z,10.36
2023-03-17T19:36:59.143Z,9.95
2023-03-17T19:39:31.190Z,9.99
2023-03-17T19:42:01.876Z,10.05
2023-03-17T19:44:28.344Z,9.99
2023-03-17T19:46:55.120Z,10.06
2023-03-17T19:49:22.448Z,9.91
2023-03-17T19:51:49.637Z,9.59
2023-03-17T19:54:16.714Z,9.72
2023-03-17T19:56:43.511Z,9.55
2023-03-17T19:59:10.179Z,9.56
2023-03-17T20:01:38.089Z,9.46
2023-03-17T20:04:08.716Z,9.56
2023-03-17T20:06:35.631Z,9.55
2023-03-17T20:09:04.185Z,9.64
2023-03-17T20:11:34.470Z,9.68
2023-03-17T20:14:02.325Z,9.71
2023-03-17T20:16:31.999Z,9.39
2023-03-17T20:18:59.399Z,9.52
2023-03-17T20:21:26.440Z,9.33
2023-03-17T20:23:52.947Z,9.02
2023-03-17T20:26:19.986Z,9.09
2023-03-17T20:29:12.256Z,9.16
2023-03-17T20:31:41.030Z,9.24
2023-03-17T20:34:11.844Z,9.30
2023-03-17T20:36:44.292Z,9.45
2023-03-17T20:39:14.882Z,9.38
2023-03-17T20:41:41.698Z,9.15
2023-03-17T20:44:09.052Z,9.08
2023-03-17T20:46:37.700Z,9.12
2023-03-17T20:49:09.823Z,9.21
2023-03-17T20:51:36.909Z,9.41
2023-03-17T20:54:04.105Z,9.33
2023-03-17T20:56:34.110Z,9.17
2023-03-17T20:59:04.991Z,9.07
2023-03-17T21:01:42.642Z,8.98
2023-03-17T21:04:12.337Z,9.07
2023-03-17T21:06:42.877Z,9.05
2023-03-17T21:09:10.169Z,8.66
2023-03-17T21:11:39.976Z,8.69
2023-03-17T21:14:09.424Z,8.66
2023-03-17T21:16:37.788Z,8.65
2023-03-17T21:19:07.960Z,8.66
2023-03-17T21:21:35.720Z,8.73
2023-03-17T21:24:02.506Z,8.76
2023-03-17T21:26:29.080Z,8.68
2023-03-17T21:28:56.845Z,8.70
2023-03-17T21:31:23.407Z,8.71
2023-03-17T21:33:50.656Z,8.64
2023-03-17T21:36:17.854Z,8.73
2023-03-17T21:38:44.388Z,8.64
2023-03-17T21:41:29.034Z,8.77
2023-03-17T21:43:55.760Z,8.54
2023-03-17T21:46:22.214Z,8.70
2023-03-17T21:48:49.587Z,8.80
2023-03-17T21:51:16.142Z,8.85
2023-03-17T21:53:42.618Z,8.87
2023-03-17T21:56:10.731Z,8.95
2023-03-17T21:58:38.511Z,8.82
2023-03-17T22:01:06.186Z,8.83
2023-03-17T22:03:32.835Z,8.95
2023-03-17T22:05:59.461Z,8.96
2023-03-17T22:08:26.702Z,9.03
2023-03-17T22:10:53.127Z,8.96
2023-03-17T22:13:19.510Z,9.03
2023-03-17T22:15:45.951Z,9.19
2023-03-17T22:18:12.483Z,9.37
2023-03-17T22:20:39.094Z,9.50
2023-03-17T22:23:05.660Z,9.48
2023-03-17T22:25:32.193Z,9.59
2023-03-17T22:27:58.636Z,9.65
2023-03-17T22:30:25.087Z,9.50
2023-03-17T22:32:52.015Z,9.29
2023-03-17T22:35:20.685Z,9.13
2023-03-17T22:37:47.392Z,9.25
2023-03-17T22:40:14.840Z,9.30
2023-03-17T22:42:41.443Z,9.33
2023-03-17T22:45:08.550Z,9.09
2023-03-17T22:47:35.031Z,9.22
2023-03-17T22:50:01.569Z,9.28
2023-03-17T22:52:28.237Z,8.89
2023-03-17T22:54:54.903Z,8.84
2023-03-17T22:57:21.374Z,9.00
2023-03-17T22:59:47.861Z,9.21
2023-03-17T23:02:16.225Z,9.32
2023-03-17T23:04:43.958Z,9.37
2023-03-17T23:07:11.137Z,9.31
2023-03-17T23:09:38.948Z,9.19
2023-03-17T23:12:06.200Z,9.18
2023-03-17T23:14:32.773Z,9.17
2023-03-17T23:16:59.509Z,9.28
2023-03-17T23:19:26.172Z,9.28
2023-03-17T23:21:52.589Z,9.51
2023-03-17T23:24:19.086Z,9.36
2023-03-17T23:26:45.558Z,9.07
2023-03-17T23:29:12.550Z,9.08
2023-03-17T23:31:39.624Z,9.07
2023-03-17T23:34:07.623Z,9.14
2023-03-17T23:36:35.200Z,9.23
2023-03-17T23:39:02.298Z,9.22
2023-03-17T23:41:28.751Z,9.19
2023-03-17T23:43:55.319Z,9.11
2023-03-17T23:46:21.768Z,9.22
2023-03-17T23:48:49.242Z,9.26
2023-03-17T23:51:15.641Z,9.37
2023-03-17T23:53:42.190Z,9.38
2023-03-17T23:56:11.213Z,9.39
2023-03-17T23:58:37.975Z,9.53
